world map with MYQ marked

MYQ - Airport

This information may not be accurate or current and is not valid for navigation or flight planning. No warranty of fitness for any purpose is made or implied.

flag of India

Donate via PayPal

Additional information is available on the NEW Great Circle Mapper

Location
City:  Mysore, Karnataka, India
ICAO / IATA:VOMY / MYQ

Details
Type:Airport (Aerodrome, Airfield)
Latitude:12°18'26"N (12.307222)
Longitude:76°38'59"E (76.649722)
Elevation:2349 ft (716 m)
Runways:unknown number
Longest:4421 ft (1348 m)

Time
Timezone:UTC+5:30 (DST+7:30)
Local Time:

Weather
METAR:VOMY  111100Z 07003KT 6000 FEW015 29/18 Q1015
TAF:VOMY  (expired)

Related Locations
Nearby:
Farthest:IPC: 11337 mi / 18245 km
Easter Island (Isla de Pascua, Rapa Nui) [Mataveri Intl], VS, CL

Find:

   beyond  
but within

Other Information
Maps:
Sources:

  


 


Great Circle Mapper   Great Circle Mapper
Great Circle Mapper FAQ   Great Circle Mapper FAQ
  Karl's Home Page
KLSē   KLSē Home
   GC on Facebook
Airlines of the World   Airlines of the World
Donate via PayPal


Copyright © 2004-2017, Karl L. Swartz. All rights reserved.
All trademarks mentioned herein belong to their respective owners.

Please see credits for attribution and copyright information.

Karl Swartz <karl@kls2.com>
  Powered by FreeBSD
Valid HTML 4.01!
Labeled with ICRA
hCard Microformat
Geo Microformat